sensor_id;sensor_type;location;lat;lon;timestamp;temperature;humidity
21762;DHT22;11203;50.870;20.682;2022-09-06T00:00:54;8.40;1.00
21762;DHT22;11203;50.870;20.682;2022-09-06T00:03:20;8.40;1.00
21762;DHT22;11203;50.870;20.682;2022-09-06T00:05:46;8.40;1.00
21762;DHT22;11203;50.870;20.682;2022-09-06T00:08:12;8.30;26.70
21762;DHT22;11203;50.870;20.682;2022-09-06T00:10:39;8.20;25.50
21762;DHT22;11203;50.870;20.682;2022-09-06T00:13:08;8.10;20.80
21762;DHT22;11203;50.870;20.682;2022-09-06T00:15:36;8.10;34.30
21762;DHT22;11203;50.870;20.682;2022-09-06T00:18:04;8.10;84.40
21762;DHT22;11203;50.870;20.682;2022-09-06T00:20:32;8.10;99.90
21762;DHT22;11203;50.870;20.682;2022-09-06T00:23:01;8.10;99.90
21762;DHT22;11203;50.870;20.682;2022-09-06T00:25:29;8.10;99.90
21762;DHT22;11203;50.870;20.682;2022-09-06T00:27:57;8.10;99.90
21762;DHT22;11203;50.870;20.682;2022-09-06T00:30:25;8.00;99.90
21762;DHT22;11203;50.870;20.682;2022-09-06T00:32:52;8.00;1.00
21762;DHT22;11203;50.870;20.682;2022-09-06T00:35:19;8.00;1.00
21762;DHT22;11203;50.870;20.682;2022-09-06T00:37:47;8.00;1.00
21762;DHT22;11203;50.870;20.682;2022-09-06T00:40:13;8.00;1.00
21762;DHT22;11203;50.870;20.682;2022-09-06T00:42:40;8.00;99.90
21762;DHT22;11203;50.870;20.682;2022-09-06T00:45:07;8.00;99.90
21762;DHT22;11203;50.870;20.682;2022-09-06T00:47:35;8.00;99.90
21762;DHT22;11203;50.870;20.682;2022-09-06T00:50:04;7.90;1.00
21762;DHT22;11203;50.870;20.682;2022-09-06T00:52:31;7.90;1.00
21762;DHT22;11203;50.870;20.682;2022-09-06T00:54:57;7.80;1.00
21762;DHT22;11203;50.870;20.682;2022-09-06T00:57:24;7.80;1.00
21762;DHT22;11203;50.870;20.682;2022-09-06T00:59:53;7.80;1.00
21762;DHT22;11203;50.870;20.682;2022-09-06T01:02:20;7.70;1.00
21762;DHT22;11203;50.870;20.682;2022-09-06T01:04:47;7.70;99.90
21762;DHT22;11203;50.870;20.682;2022-09-06T01:13:36;7.70;99.90
21762;DHT22;11203;50.870;20.682;2022-09-06T01:16:27;7.70;99.90
21762;DHT22;11203;50.870;20.682;2022-09-06T01:22:09;7.60;99.90
21762;DHT22;11203;50.870;20.682;2022-09-06T01:28:24;7.40;99.90
21762;DHT22;11203;50.870;20.682;2022-09-06T01:33:42;7.40;99.90
21762;DHT22;11203;50.870;20.682;2022-09-06T01:36:17;7.30;99.90
21762;DHT22;11203;50.870;20.682;2022-09-06T01:38:47;7.30;99.90
21762;DHT22;11203;50.870;20.682;2022-09-06T01:41:13;7.20;99.90
21762;DHT22;11203;50.870;20.682;2022-09-06T01:43:42;7.20;99.90
21762;DHT22;11203;50.870;20.682;2022-09-06T01:46:32;7.30;99.90
21762;DHT22;11203;50.870;20.682;2022-09-06T02:00:13;7.30;25.60
21762;DHT22;11203;50.870;20.682;2022-09-06T02:05:35;7.10;1.00
21762;DHT22;11203;50.870;20.682;2022-09-06T02:08:09;7.10;1.00
21762;DHT22;11203;50.870;20.682;2022-09-06T02:10:44;7.10;1.00
21762;DHT22;11203;50.870;20.682;2022-09-06T02:13:15;7.10;48.90
21762;DHT22;11203;50.870;20.682;2022-09-06T02:15:49;7.00;99.90
21762;DHT22;11203;50.870;20.682;2022-09-06T02:18:22;7.00;99.90
21762;DHT22;11203;50.870;20.682;2022-09-06T02:20:53;7.00;99.90
21762;DHT22;11203;50.870;20.682;2022-09-06T02:23:25;6.90;99.90
21762;DHT22;11203;50.870;20.682;2022-09-06T02:25:57;6.90;99.90
21762;DHT22;11203;50.870;20.682;2022-09-06T02:28:27;6.90;1.00
21762;DHT22;11203;50.870;20.682;2022-09-06T02:30:57;6.80;1.00
21762;DHT22;11203;50.870;20.682;2022-09-06T02:33:29;6.70;1.00
21762;DHT22;11203;50.870;20.682;2022-09-06T02:36:02;6.80;1.00
21762;DHT22;11203;50.870;20.682;2022-09-06T02:38:31;6.80;1.00
21762;DHT22;11203;50.870;20.682;2022-09-06T02:40:59;6.70;1.00
21762;DHT22;11203;50.870;20.682;2022-09-06T02:43:25;6.70;1.00
21762;DHT22;11203;50.870;20.682;2022-09-06T02:45:51;6.60;1.00
21762;DHT22;11203;50.870;20.682;2022-09-06T02:48:17;6.70;1.00
21762;DHT22;11203;50.870;20.682;2022-09-06T02:50:43;6.70;1.00
21762;DHT22;11203;50.870;20.682;2022-09-06T02:53:11;6.60;1.00
21762;DHT22;11203;50.870;20.682;2022-09-06T02:55:38;6.60;1.00
21762;DHT22;11203;50.870;20.682;2022-09-06T02:58:08;6.60;1.00
21762;DHT22;11203;50.870;20.682;2022-09-06T03:00:36;6.60;1.00
21762;DHT22;11203;50.870;20.682;2022-09-06T03:03:02;6.50;99.90
21762;DHT22;11203;50.870;20.682;2022-09-06T03:05:28;6.50;1.00
21762;DHT22;11203;50.870;20.682;2022-09-06T03:07:55;6.40;99.90
21762;DHT22;11203;50.870;20.682;2022-09-06T03:10:22;6.30;1.00
21762;DHT22;11203;50.870;20.682;2022-09-06T03:12:49;6.40;1.00
21762;DHT22;11203;50.870;20.682;2022-09-06T03:15:15;6.50;1.00
21762;DHT22;11203;50.870;20.682;2022-09-06T03:17:42;6.50;99.90
21762;DHT22;11203;50.870;20.682;2022-09-06T03:20:09;6.50;1.00
21762;DHT22;11203;50.870;20.682;2022-09-06T03:22:40;6.50;1.00
21762;DHT22;11203;50.870;20.682;2022-09-06T03:25:07;6.50;99.90
21762;DHT22;11203;50.870;20.682;2022-09-06T03:27:34;6.50;99.90
21762;DHT22;11203;50.870;20.682;2022-09-06T03:30:00;6.50;1.00
21762;DHT22;11203;50.870;20.682;2022-09-06T03:32:27;6.60;99.90
21762;DHT22;11203;50.870;20.682;2022-09-06T03:34:53;6.50;99.90
21762;DHT22;11203;50.870;20.682;2022-09-06T03:37:19;6.60;1.00
21762;DHT22;11203;50.870;20.682;2022-09-06T03:39:45;6.60;1.00
21762;DHT22;11203;50.870;20.682;2022-09-06T03:42:11;6.70;1.00
21762;DHT22;11203;50.870;20.682;2022-09-06T03:44:37;6.70;1.00
21762;DHT22;11203;50.870;20.682;2022-09-06T03:47:04;6.70;1.00
21762;DHT22;11203;50.870;20.682;2022-09-06T03:49:30;6.70;1.00
21762;DHT22;11203;50.870;20.682;2022-09-06T03:51:56;6.80;99.90
21762;DHT22;11203;50.870;20.682;2022-09-06T03:54:22;6.80;1.00
21762;DHT22;11203;50.870;20.682;2022-09-06T03:56:50;6.80;1.00
21762;DHT22;11203;50.870;20.682;2022-09-06T03:59:16;6.70;1.00
21762;DHT22;11203;50.870;20.682;2022-09-06T04:01:42;6.80;1.00
21762;DHT22;11203;50.870;20.682;2022-09-06T04:04:08;6.70;99.90
21762;DHT22;11203;50.870;20.682;2022-09-06T04:06:34;6.70;26.10
21762;DHT22;11203;50.870;20.682;2022-09-06T04:09:00;6.60;1.00
21762;DHT22;11203;50.870;20.682;2022-09-06T04:11:26;6.60;1.00
21762;DHT22;11203;50.870;20.682;2022-09-06T04:13:52;6.60;1.00
21762;DHT22;11203;50.870;20.682;2022-09-06T04:16:18;6.50;1.00
21762;DHT22;11203;50.870;20.682;2022-09-06T04:18:44;6.40;1.00
21762;DHT22;11203;50.870;20.682;2022-09-06T04:21:10;6.50;1.00
21762;DHT22;11203;50.870;20.682;2022-09-06T04:23:36;6.50;1.00
21762;DHT22;11203;50.870;20.682;2022-09-06T04:26:02;6.60;29.40
21762;DHT22;11203;50.870;20.682;2022-09-06T04:28:29;6.60;78.10
21762;DHT22;11203;50.870;20.682;2022-09-06T04:30:57;6.50;1.00
21762;DHT22;11203;50.870;20.682;2022-09-06T04:33:24;6.40;99.90
21762;DHT22;11203;50.870;20.682;2022-09-06T04:35:53;6.40;99.90
21762;DHT22;11203;50.870;20.682;2022-09-06T04:38:24;6.40;99.90
21762;DHT22;11203;50.870;20.682;2022-09-06T04:40:51;6.50;1.00
21762;DHT22;11203;50.870;20.682;2022-09-06T04:43:17;6.30;1.00
21762;DHT22;11203;50.870;20.682;2022-09-06T04:45:43;6.60;1.00
21762;DHT22;11203;50.870;20.682;2022-09-06T04:48:10;6.60;99.90
21762;DHT22;11203;50.870;20.682;2022-09-06T04:50:37;6.60;1.00
21762;DHT22;11203;50.870;20.682;2022-09-06T04:53:03;6.60;1.00
21762;DHT22;11203;50.870;20.682;2022-09-06T04:55:30;6.70;1.00
21762;DHT22;11203;50.870;20.682;2022-09-06T04:57:57;6.70;1.00
21762;DHT22;11203;50.870;20.682;2022-09-06T05:00:29;6.80;1.00
21762;DHT22;11203;50.870;20.682;2022-09-06T05:02:57;6.90;99.90
21762;DHT22;11203;50.870;20.682;2022-09-06T05:05:23;6.90;99.90
21762;DHT22;11203;50.870;20.682;2022-09-06T05:07:53;7.00;1.00
21762;DHT22;11203;50.870;20.682;2022-09-06T05:10:20;7.10;1.00
21762;DHT22;11203;50.870;20.682;2022-09-06T05:12:48;7.20;53.30
21762;DHT22;11203;50.870;20.682;2022-09-06T05:15:16;7.40;1.00
21762;DHT22;11203;50.870;20.682;2022-09-06T05:17:43;7.50;99.90
21762;DHT22;11203;50.870;20.682;2022-09-06T05:20:09;7.70;99.90
21762;DHT22;11203;50.870;20.682;2022-09-06T05:22:37;7.80;99.90
21762;DHT22;11203;50.870;20.682;2022-09-06T05:25:03;8.10;1.00
21762;DHT22;11203;50.870;20.682;2022-09-06T05:27:30;8.30;99.90
21762;DHT22;11203;50.870;20.682;2022-09-06T05:29:56;8.60;1.00
21762;DHT22;11203;50.870;20.682;2022-09-06T05:32:22;8.60;99.90
21762;DHT22;11203;50.870;20.682;2022-09-06T05:34:48;8.80;1.00
21762;DHT22;11203;50.870;20.682;2022-09-06T05:37:14;8.90;99.90
21762;DHT22;11203;50.870;20.682;2022-09-06T05:39:40;9.10;99.90
21762;DHT22;11203;50.870;20.682;2022-09-06T05:42:06;9.20;99.90
21762;DHT22;11203;50.870;20.682;2022-09-06T05:44:34;9.40;99.90
21762;DHT22;11203;50.870;20.682;2022-09-06T05:47:02;9.50;1.00
21762;DHT22;11203;50.870;20.682;2022-09-06T05:49:29;9.70;99.90
21762;DHT22;11203;50.870;20.682;2022-09-06T05:51:56;9.80;55.50
21762;DHT22;11203;50.870;20.682;2022-09-06T05:54:23;10.10;1.00
21762;DHT22;11203;50.870;20.682;2022-09-06T05:56:49;10.40;1.00
21762;DHT22;11203;50.870;20.682;2022-09-06T05:59:15;10.50;1.00
21762;DHT22;11203;50.870;20.682;2022-09-06T06:01:52;10.60;1.00
21762;DHT22;11203;50.870;20.682;2022-09-06T06:04:19;10.90;99.90
21762;DHT22;11203;50.870;20.682;2022-09-06T06:06:46;11.10;47.80
21762;DHT22;11203;50.870;20.682;2022-09-06T06:09:14;11.20;1.00
21762;DHT22;11203;50.870;20.682;2022-09-06T06:11:41;11.40;1.00
21762;DHT22;11203;50.870;20.682;2022-09-06T06:14:07;11.40;1.00
21762;DHT22;11203;50.870;20.682;2022-09-06T06:16:34;11.70;1.00
21762;DHT22;11203;50.870;20.682;2022-09-06T06:19:00;11.90;1.00
21762;DHT22;11203;50.870;20.682;2022-09-06T06:21:30;12.10;99.90
21762;DHT22;11203;50.870;20.682;2022-09-06T06:24:02;12.30;99.90
21762;DHT22;11203;50.870;20.682;2022-09-06T06:26:32;12.40;36.90
21762;DHT22;11203;50.870;20.682;2022-09-06T06:29:00;12.50;1.00
21762;DHT22;11203;50.870;20.682;2022-09-06T06:31:31;12.50;1.00
21762;DHT22;11203;50.870;20.682;2022-09-06T06:33:58;12.70;1.00
21762;DHT22;11203;50.870;20.682;2022-09-06T06:36:25;12.80;1.00
21762;DHT22;11203;50.870;20.682;2022-09-06T06:38:53;12.90;1.00
21762;DHT22;11203;50.870;20.682;2022-09-06T06:41:22;12.90;1.00
21762;DHT22;11203;50.870;20.682;2022-09-06T06:43:53;13.10;1.00
21762;DHT22;11203;50.870;20.682;2022-09-06T06:46:26;13.20;1.00
21762;DHT22;11203;50.870;20.682;2022-09-06T06:48:53;13.30;1.00
21762;DHT22;11203;50.870;20.682;2022-09-06T06:51:21;13.40;1.00
21762;DHT22;11203;50.870;20.682;2022-09-06T06:53:49;13.50;99.90
21762;DHT22;11203;50.870;20.682;2022-09-06T06:56:20;13.60;99.90
21762;DHT22;11203;50.870;20.682;2022-09-06T06:58:48;13.60;99.90
21762;DHT22;11203;50.870;20.682;2022-09-06T07:01:16;13.70;99.90
21762;DHT22;11203;50.870;20.682;2022-09-06T07:03:44;13.90;99.90
21762;DHT22;11203;50.870;20.682;2022-09-06T07:06:11;14.00;99.90
21762;DHT22;11203;50.870;20.682;2022-09-06T07:08:39;14.00;99.90
21762;DHT22;11203;50.870;20.682;2022-09-06T07:11:07;14.10;99.90
21762;DHT22;11203;50.870;20.682;2022-09-06T07:13:35;14.30;99.90
21762;DHT22;11203;50.870;20.682;2022-09-06T07:18:40;14.40;99.90
21762;DHT22;11203;50.870;20.682;2022-09-06T07:21:09;14.50;99.90
21762;DHT22;11203;50.870;20.682;2022-09-06T07:23:39;14.50;99.90
21762;DHT22;11203;50.870;20.682;2022-09-06T07:26:05;14.70;99.90
21762;DHT22;11203;50.870;20.682;2022-09-06T07:28:32;14.80;99.90
21762;DHT22;11203;50.870;20.682;2022-09-06T07:30:58;14.90;99.90
21762;DHT22;11203;50.870;20.682;2022-09-06T07:33:25;15.00;99.90
21762;DHT22;11203;50.870;20.682;2022-09-06T07:36:00;15.00;95.30
21762;DHT22;11203;50.870;20.682;2022-09-06T07:38:28;15.20;86.20
21762;DHT22;11203;50.870;20.682;2022-09-06T07:40:59;15.30;46.40
21762;DHT22;11203;50.870;20.682;2022-09-06T07:43:27;15.30;17.80
21762;DHT22;11203;50.870;20.682;2022-09-06T07:46:15;15.40;1.00
21762;DHT22;11203;50.870;20.682;2022-09-06T07:48:43;15.40;1.00
21762;DHT22;11203;50.870;20.682;2022-09-06T07:51:15;15.50;1.00
21762;DHT22;11203;50.870;20.682;2022-09-06T07:53:44;15.60;1.00
21762;DHT22;11203;50.870;20.682;2022-09-06T07:56:16;15.70;1.00
21762;DHT22;11203;50.870;20.682;2022-09-06T07:58:42;15.80;1.00
21762;DHT22;11203;50.870;20.682;2022-09-06T08:03:58;16.00;1.00
21762;DHT22;11203;50.870;20.682;2022-09-06T08:06:29;16.00;1.00
21762;DHT22;11203;50.870;20.682;2022-09-06T08:08:58;16.10;99.90
21762;DHT22;11203;50.870;20.682;2022-09-06T08:11:26;16.20;99.90
21762;DHT22;11203;50.870;20.682;2022-09-06T08:13:57;16.30;99.90
21762;DHT22;11203;50.870;20.682;2022-09-06T08:16:26;16.40;99.90
21762;DHT22;11203;50.870;20.682;2022-09-06T08:18:56;16.50;99.90
21762;DHT22;11203;50.870;20.682;2022-09-06T08:21:28;16.40;99.90
21762;DHT22;11203;50.870;20.682;2022-09-06T08:24:05;16.50;99.90
21762;DHT22;11203;50.870;20.682;2022-09-06T08:26:34;16.70;99.90
21762;DHT22;11203;50.870;20.682;2022-09-06T08:29:03;16.40;99.90
21762;DHT22;11203;50.870;20.682;2022-09-06T08:31:35;16.50;99.90
21762;DHT22;11203;50.870;20.682;2022-09-06T08:34:02;16.50;99.90
21762;DHT22;11203;50.870;20.682;2022-09-06T08:36:29;16.60;99.90
21762;DHT22;11203;50.870;20.682;2022-09-06T08:38:59;16.60;99.90
21762;DHT22;11203;50.870;20.682;2022-09-06T08:41:29;16.50;99.90
21762;DHT22;11203;50.870;20.682;2022-09-06T08:44:03;16.80;99.90
21762;DHT22;11203;50.870;20.682;2022-09-06T08:46:38;16.80;99.90
21762;DHT22;11203;50.870;20.682;2022-09-06T08:49:07;16.70;99.90
21762;DHT22;11203;50.870;20.682;2022-09-06T09:00:26;17.20;99.90
21762;DHT22;11203;50.870;20.682;2022-09-06T09:03:08;17.30;99.90
21762;DHT22;11203;50.870;20.682;2022-09-06T09:05:38;17.50;99.90
21762;DHT22;11203;50.870;20.682;2022-09-06T09:08:27;17.70;99.90
21762;DHT22;11203;50.870;20.682;2022-09-06T09:11:01;17.80;99.90
21762;DHT22;11203;50.870;20.682;2022-09-06T09:13:51;17.70;99.90
21762;DHT22;11203;50.870;20.682;2022-09-06T09:16:19;17.80;60.80
21762;DHT22;11203;50.870;20.682;2022-09-06T09:18:51;17.80;39.70
21762;DHT22;11203;50.870;20.682;2022-09-06T09:21:22;17.80;29.30
21762;DHT22;11203;50.870;20.682;2022-09-06T09:23:57;17.80;20.80
21762;DHT22;11203;50.870;20.682;2022-09-06T09:26:27;17.90;5.80
21762;DHT22;11203;50.870;20.682;2022-09-06T09:29:12;17.80;1.00
21762;DHT22;11203;50.870;20.682;2022-09-06T09:31:41;17.90;1.00
21762;DHT22;11203;50.870;20.682;2022-09-06T09:34:37;17.90;1.00
21762;DHT22;11203;50.870;20.682;2022-09-06T09:37:24;17.90;1.00
21762;DHT22;11203;50.870;20.682;2022-09-06T09:39:55;17.90;1.00
21762;DHT22;11203;50.870;20.682;2022-09-06T09:42:32;17.90;1.00
21762;DHT22;11203;50.870;20.682;2022-09-06T09:45:02;18.00;1.00
21762;DHT22;11203;50.870;20.682;2022-09-06T09:47:50;17.90;1.00
21762;DHT22;11203;50.870;20.682;2022-09-06T09:50:29;18.00;1.00
21762;DHT22;11203;50.870;20.682;2022-09-06T09:53:16;18.00;1.00
21762;DHT22;11203;50.870;20.682;2022-09-06T09:55:45;18.00;1.00
21762;DHT22;11203;50.870;20.682;2022-09-06T09:58:29;18.00;1.00
21762;DHT22;11203;50.870;20.682;2022-09-06T10:01:19;18.20;1.00
21762;DHT22;11203;50.870;20.682;2022-09-06T10:03:47;18.20;1.00
21762;DHT22;11203;50.870;20.682;2022-09-06T10:06:24;18.20;1.00
21762;DHT22;11203;50.870;20.682;2022-09-06T10:08:51;18.30;1.00
21762;DHT22;11203;50.870;20.682;2022-09-06T10:11:38;18.20;1.00
21762;DHT22;11203;50.870;20.682;2022-09-06T10:14:23;18.30;1.00
21762;DHT22;11203;50.870;20.682;2022-09-06T10:16:50;18.20;1.00
21762;DHT22;11203;50.870;20.682;2022-09-06T10:19:36;18.10;1.00
21762;DHT22;11203;50.870;20.682;2022-09-06T10:22:18;18.30;1.00
21762;DHT22;11203;50.870;20.682;2022-09-06T10:27:33;18.40;1.00
21762;DHT22;11203;50.870;20.682;2022-09-06T10:30:05;18.30;1.00
21762;DHT22;11203;50.870;20.682;2022-09-06T10:32:50;18.40;1.00
21762;DHT22;11203;50.870;20.682;2022-09-06T10:35:33;18.40;1.00
21762;DHT22;11203;50.870;20.682;2022-09-06T10:41:39;18.50;1.00
21762;DHT22;11203;50.870;20.682;2022-09-06T10:47:12;18.60;1.00
21762;DHT22;11203;50.870;20.682;2022-09-06T10:49:43;18.60;1.00
21762;DHT22;11203;50.870;20.682;2022-09-06T10:52:15;18.60;1.00
21762;DHT22;11203;50.870;20.682;2022-09-06T10:54:43;18.60;1.00
21762;DHT22;11203;50.870;20.682;2022-09-06T10:57:15;18.60;1.00
21762;DHT22;11203;50.870;20.682;2022-09-06T10:59:50;18.60;1.00
21762;DHT22;11203;50.870;20.682;2022-09-06T11:05:06;18.70;1.00
21762;DHT22;11203;50.870;20.682;2022-09-06T11:07:41;18.60;1.00
21762;DHT22;11203;50.870;20.682;2022-09-06T11:13:03;18.60;1.00
21762;DHT22;11203;50.870;20.682;2022-09-06T11:15:50;18.70;1.00
21762;DHT22;11203;50.870;20.682;2022-09-06T11:27:04;18.90;1.00
21762;DHT22;11203;50.870;20.682;2022-09-06T11:29:44;18.70;1.00
21762;DHT22;11203;50.870;20.682;2022-09-06T11:32:32;18.80;1.00
21762;DHT22;11203;50.870;20.682;2022-09-06T11:35:02;18.60;1.00
21762;DHT22;11203;50.870;20.682;2022-09-06T11:37:35;18.80;1.00
21762;DHT22;11203;50.870;20.682;2022-09-06T11:40:05;18.90;1.00
21762;DHT22;11203;50.870;20.682;2022-09-06T11:47:38;19.00;1.00
21762;DHT22;11203;50.870;20.682;2022-09-06T11:50:24;19.00;1.00
21762;DHT22;11203;50.870;20.682;2022-09-06T11:53:10;19.10;1.00
21762;DHT22;11203;50.870;20.682;2022-09-06T11:56:21;19.10;1.00
21762;DHT22;11203;50.870;20.682;2022-09-06T12:06:23;19.00;1.00
21762;DHT22;11203;50.870;20.682;2022-09-06T12:08:52;19.00;1.00
21762;DHT22;11203;50.870;20.682;2022-09-06T12:24:58;19.10;1.00
21762;DHT22;11203;50.870;20.682;2022-09-06T12:27:33;19.00;1.00
21762;DHT22;11203;50.870;20.682;2022-09-06T12:30:03;19.20;1.00
21762;DHT22;11203;50.870;20.682;2022-09-06T12:32:50;19.30;1.00
21762;DHT22;11203;50.870;20.682;2022-09-06T12:37:58;18.80;1.00
21762;DHT22;11203;50.870;20.682;2022-09-06T12:40:29;19.00;1.00
21762;DHT22;11203;50.870;20.682;2022-09-06T12:42:57;19.10;1.00
21762;DHT22;11203;50.870;20.682;2022-09-06T12:45:24;19.20;1.00
21762;DHT22;11203;50.870;20.682;2022-09-06T12:48:03;19.20;1.00
21762;DHT22;11203;50.870;20.682;2022-09-06T12:50:30;19.20;1.00
21762;DHT22;11203;50.870;20.682;2022-09-06T12:52:58;19.30;1.00
21762;DHT22;11203;50.870;20.682;2022-09-06T12:55:30;19.30;1.00
21762;DHT22;11203;50.870;20.682;2022-09-06T12:58:03;19.20;1.00
21762;DHT22;11203;50.870;20.682;2022-09-06T13:05:49;19.30;1.00
21762;DHT22;11203;50.870;20.682;2022-09-06T13:11:24;19.10;1.00
21762;DHT22;11203;50.870;20.682;2022-09-06T13:13:54;19.30;1.00
21762;DHT22;11203;50.870;20.682;2022-09-06T13:16:31;19.30;1.00
21762;DHT22;11203;50.870;20.682;2022-09-06T13:19:35;19.20;1.00
21762;DHT22;11203;50.870;20.682;2022-09-06T13:22:07;19.20;1.00
21762;DHT22;11203;50.870;20.682;2022-09-06T13:30:34;19.10;1.00
21762;DHT22;11203;50.870;20.682;2022-09-06T13:33:07;19.00;1.00
21762;DHT22;11203;50.870;20.682;2022-09-06T13:36:36;19.00;1.00
21762;DHT22;11203;50.870;20.682;2022-09-06T13:38:51;19.10;1.00
21762;DHT22;11203;50.870;20.682;2022-09-06T13:44:00;19.10;1.00
21762;DHT22;11203;50.870;20.682;2022-09-06T13:46:33;19.10;1.00
21762;DHT22;11203;50.870;20.682;2022-09-06T13:49:03;19.10;1.00
21762;DHT22;11203;50.870;20.682;2022-09-06T13:51:30;19.10;1.00
21762;DHT22;11203;50.870;20.682;2022-09-06T13:54:13;19.10;1.00
21762;DHT22;11203;50.870;20.682;2022-09-06T13:56:41;19.20;1.00
21762;DHT22;11203;50.870;20.682;2022-09-06T13:59:10;19.20;1.00
21762;DHT22;11203;50.870;20.682;2022-09-06T14:01:38;19.20;1.00
21762;DHT22;11203;50.870;20.682;2022-09-06T14:04:05;19.20;1.00
21762;DHT22;11203;50.870;20.682;2022-09-06T14:06:32;19.20;1.00
21762;DHT22;11203;50.870;20.682;2022-09-06T14:09:01;19.20;1.00
21762;DHT22;11203;50.870;20.682;2022-09-06T14:11:27;19.30;1.00
21762;DHT22;11203;50.870;20.682;2022-09-06T14:13:53;19.20;1.00
21762;DHT22;11203;50.870;20.682;2022-09-06T14:16:19;19.20;1.00
21762;DHT22;11203;50.870;20.682;2022-09-06T14:18:45;19.20;1.00
21762;DHT22;11203;50.870;20.682;2022-09-06T14:21:12;19.20;1.00
21762;DHT22;11203;50.870;20.682;2022-09-06T14:23:38;19.30;1.00
21762;DHT22;11203;50.870;20.682;2022-09-06T14:26:08;19.30;1.00
21762;DHT22;11203;50.870;20.682;2022-09-06T14:28:35;19.20;1.00
21762;DHT22;11203;50.870;20.682;2022-09-06T14:31:15;19.30;1.00
21762;DHT22;11203;50.870;20.682;2022-09-06T14:33:42;19.30;1.00
21762;DHT22;11203;50.870;20.682;2022-09-06T14:36:14;19.30;1.00
21762;DHT22;11203;50.870;20.682;2022-09-06T14:38:43;19.40;1.00
21762;DHT22;11203;50.870;20.682;2022-09-06T14:41:11;19.40;1.00
21762;DHT22;11203;50.870;20.682;2022-09-06T14:43:40;19.20;1.00
21762;DHT22;11203;50.870;20.682;2022-09-06T14:46:09;19.20;1.00
21762;DHT22;11203;50.870;20.682;2022-09-06T14:48:37;19.20;1.00
21762;DHT22;11203;50.870;20.682;2022-09-06T14:51:08;19.10;1.00
21762;DHT22;11203;50.870;20.682;2022-09-06T14:53:43;19.10;1.00
21762;DHT22;11203;50.870;20.682;2022-09-06T14:56:10;19.10;1.00
21762;DHT22;11203;50.870;20.682;2022-09-06T14:58:38;19.10;1.00
21762;DHT22;11203;50.870;20.682;2022-09-06T15:03:41;19.10;1.00
21762;DHT22;11203;50.870;20.682;2022-09-06T15:06:10;19.00;1.00
21762;DHT22;11203;50.870;20.682;2022-09-06T15:08:36;19.00;1.00
21762;DHT22;11203;50.870;20.682;2022-09-06T15:11:03;18.90;1.00
21762;DHT22;11203;50.870;20.682;2022-09-06T15:13:36;18.90;1.00
21762;DHT22;11203;50.870;20.682;2022-09-06T15:16:04;18.80;1.00
21762;DHT22;11203;50.870;20.682;2022-09-06T15:18:31;18.70;1.00
21762;DHT22;11203;50.870;20.682;2022-09-06T15:21:08;18.70;1.00
21762;DHT22;11203;50.870;20.682;2022-09-06T15:23:39;18.70;1.00
21762;DHT22;11203;50.870;20.682;2022-09-06T15:26:06;18.60;1.00
21762;DHT22;11203;50.870;20.682;2022-09-06T15:28:34;18.50;1.00
21762;DHT22;11203;50.870;20.682;2022-09-06T15:31:05;18.40;1.00
21762;DHT22;11203;50.870;20.682;2022-09-06T15:33:33;18.30;1.00
21762;DHT22;11203;50.870;20.682;2022-09-06T15:36:01;18.20;1.00
21762;DHT22;11203;50.870;20.682;2022-09-06T15:38:32;18.10;1.00
21762;DHT22;11203;50.870;20.682;2022-09-06T15:41:10;18.10;1.00
21762;DHT22;11203;50.870;20.682;2022-09-06T15:43:44;18.00;1.00
21762;DHT22;11203;50.870;20.682;2022-09-06T15:46:16;18.00;1.00
21762;DHT22;11203;50.870;20.682;2022-09-06T15:48:47;18.00;1.00
21762;DHT22;11203;50.870;20.682;2022-09-06T15:51:17;17.90;1.00
21762;DHT22;11203;50.870;20.682;2022-09-06T15:53:44;17.80;1.00
21762;DHT22;11203;50.870;20.682;2022-09-06T15:56:13;17.70;1.00
21762;DHT22;11203;50.870;20.682;2022-09-06T15:58:41;17.60;1.00
21762;DHT22;11203;50.870;20.682;2022-09-06T16:03:57;17.50;1.00
21762;DHT22;11203;50.870;20.682;2022-09-06T16:06:33;17.40;1.00
21762;DHT22;11203;50.870;20.682;2022-09-06T16:09:05;17.40;1.00
21762;DHT22;11203;50.870;20.682;2022-09-06T16:11:33;17.30;1.00
21762;DHT22;11203;50.870;20.682;2022-09-06T16:14:03;17.20;1.00
21762;DHT22;11203;50.870;20.682;2022-09-06T16:16:30;17.20;1.00
21762;DHT22;11203;50.870;20.682;2022-09-06T16:18:57;17.10;1.00
21762;DHT22;11203;50.870;20.682;2022-09-06T16:21:27;17.10;1.00
21762;DHT22;11203;50.870;20.682;2022-09-06T16:24:01;17.10;1.00
21762;DHT22;11203;50.870;20.682;2022-09-06T16:26:31;17.00;1.00
21762;DHT22;11203;50.870;20.682;2022-09-06T16:29:00;17.00;1.00
21762;DHT22;11203;50.870;20.682;2022-09-06T16:31:27;16.90;1.00
21762;DHT22;11203;50.870;20.682;2022-09-06T16:33:55;16.90;1.00
21762;DHT22;11203;50.870;20.682;2022-09-06T16:36:23;16.80;1.00
21762;DHT22;11203;50.870;20.682;2022-09-06T16:38:50;16.80;1.00
21762;DHT22;11203;50.870;20.682;2022-09-06T16:41:21;16.70;1.00
21762;DHT22;11203;50.870;20.682;2022-09-06T16:43:50;16.70;1.00
21762;DHT22;11203;50.870;20.682;2022-09-06T16:46:18;16.70;1.00
21762;DHT22;11203;50.870;20.682;2022-09-06T16:48:57;16.60;1.00
21762;DHT22;11203;50.870;20.682;2022-09-06T16:51:26;16.50;1.00
21762;DHT22;11203;50.870;20.682;2022-09-06T16:53:54;16.40;1.00
21762;DHT22;11203;50.870;20.682;2022-09-06T16:56:24;16.30;1.00
21762;DHT22;11203;50.870;20.682;2022-09-06T16:58:53;16.20;1.00
21762;DHT22;11203;50.870;20.682;2022-09-06T17:01:23;16.20;1.00
21762;DHT22;11203;50.870;20.682;2022-09-06T17:03:50;16.00;1.00
21762;DHT22;11203;50.870;20.682;2022-09-06T17:06:16;16.00;1.00
21762;DHT22;11203;50.870;20.682;2022-09-06T17:08:43;15.90;1.00
21762;DHT22;11203;50.870;20.682;2022-09-06T17:11:12;15.70;1.00
21762;DHT22;11203;50.870;20.682;2022-09-06T17:13:40;15.70;1.00
21762;DHT22;11203;50.870;20.682;2022-09-06T17:16:08;15.60;1.00
21762;DHT22;11203;50.870;20.682;2022-09-06T17:18:53;15.50;1.00
21762;DHT22;11203;50.870;20.682;2022-09-06T17:21:23;15.40;1.00
21762;DHT22;11203;50.870;20.682;2022-09-06T17:23:50;15.40;1.00
21762;DHT22;11203;50.870;20.682;2022-09-06T17:26:17;15.30;1.00
21762;DHT22;11203;50.870;20.682;2022-09-06T17:28:46;15.20;1.00
21762;DHT22;11203;50.870;20.682;2022-09-06T17:31:17;15.10;1.00
21762;DHT22;11203;50.870;20.682;2022-09-06T17:33:47;15.00;1.00
21762;DHT22;11203;50.870;20.682;2022-09-06T17:36:15;14.90;1.00
21762;DHT22;11203;50.870;20.682;2022-09-06T17:38:44;14.90;1.00
21762;DHT22;11203;50.870;20.682;2022-09-06T17:43:47;14.70;1.00
21762;DHT22;11203;50.870;20.682;2022-09-06T17:46:13;14.70;1.00
21762;DHT22;11203;50.870;20.682;2022-09-06T17:48:39;14.60;1.00
21762;DHT22;11203;50.870;20.682;2022-09-06T17:51:07;14.50;1.00
21762;DHT22;11203;50.870;20.682;2022-09-06T17:53:34;14.50;1.00